x

9418767 - North Spit, Ca (hbyc1) Weather Station

5:36pm - Wed 22nd Nov 2017 All times are PST. -8 hours from GMT.

  • Wind
    10mph, 18mph gusts
  • Sea Temp 55°f
  • Air Temp 59°f
  • Sea Pressure 1018.5mb
  • 9418767 - North Spit, Ca
  • 9418767 - North Spit, Ca

More Historic Weather Station data

Upgrade to MSW Pro to gain access to the past 30 days of data for over 8000 Wavebouys and Weather Stations around the globe.

Join

Comparision Forecast

View Surf forecast
   
Wed 11/22 5:36pm 10 18 mph 1018.5mb 55f 59f
5:30pm 17 20 mph 1018.5mb 55f 59f
5:24pm 14 16 mph 1018.9mb 55f 59f
5:18pm 15 17 mph 1018.9mb 55f 59f
5:12pm 13 16 mph 1019mb 55f 58f
5:06pm 14 16 mph 1019.2mb 55f 58f
5:00pm 13 15 mph 1019.4mb 55f 59f
4:36pm 7 9 mph 1020.1mb 55f 58f
4:30pm 8 15 mph 1020.2mb 55f 58f
4:24pm 15 17 mph 1019.9mb 55f 59f
4:18pm 10 14 mph 1019.9mb 55f 58f
4:12pm 9 10 mph 1019.9mb 55f 58f
4:06pm 8 10 mph 1020.1mb 55f 58f
4:00pm 10 13 mph 1020mb 55f 58f
3:36pm 10 13 mph 1019.6mb 55f 60f
3:30pm 6 8 mph 1019.9mb 55f 60f
3:24pm 3 5 mph 1019.7mb 55f 60f
3:18pm 3 5 mph 1019.5mb 55f 60f
3:12pm 1 6 mph 1019.8mb 55f 60f
3:06pm 3 6 mph 1019.7mb 55f 60f
3:00pm 2 3 mph 1019.8mb 55f 60f
2:36pm 9 11 mph 1019.8mb 55f 62f
2:30pm 9 13 mph 1019.5mb 55f 61f
2:24pm 10 11 mph 1019.3mb 55f 61f
2:18pm 2 6 mph 1019mb 55f 64f
2:12pm 7 8 mph 1018.6mb 55f 63f
2:06pm 7 9 mph 1018.6mb 55f 62f
2:00pm 7 9 mph 1018.8mb 55f 61f
1:36pm  -  mph 1019.2mb 55f -
1:30pm  -  mph 1019.1mb 55f -
1:24pm  -  mph 1019.2mb 55f -
1:18pm  -  mph 1019.3mb 55f -
1:12pm  -  mph 1019.3mb 55f -
1:06pm  -  mph 1019.4mb 55f -
1:00pm  -  mph 1019.4mb 55f -
12:36pm 11 17 mph 1019.1mb 55f 59f
12:30pm 11 13 mph 1019.1mb 55f 60f
12:24pm 8 9 mph 1019.1mb 55f 61f
12:18pm 6 8 mph 1018.9mb 55f 61f
12:12pm 3 5 mph 1018.9mb 55f 60f
12:06pm 2 6 mph 1018.7mb 55f 62f
12:00pm 2 3 mph 1018.9mb 55f 61f
11:36am 16 18 mph 1019.4mb 55f 62f
11:30am 17 23 mph 1019.9mb 55f 62f
11:24am 15 18 mph 1020mb 55f 61f
11:18am 15 20 mph 1020.1mb 55f 60f
11:12am 15 17 mph 1019.9mb 55f 60f
11:06am 5 7 mph 1019.6mb 55f 59f
11:00am 6 8 mph 1019.4mb 55f 59f
10:36am 10 13 mph 1019.6mb 55f 62f
10:30am 10 15 mph 1019.6mb 55f 64f
10:24am 13 16 mph 1019.7mb 55f 64f
10:18am 16 18 mph 1019.5mb 55f 64f
10:12am 16 18 mph 1019.5mb 55f 64f
10:06am 15 20 mph 1019.7mb 55f 63f
10:00am 18 23 mph 1019.7mb 55f 62f
9:36am 20 22 mph 1018.8mb 55f 64f
9:30am 22 25 mph 1018.7mb 55f 65f
9:24am 23 24 mph 1018.8mb 55f 65f
9:18am 20 22 mph 1018.7mb 55f 64f
9:12am 16 18 mph 1018.1mb 55f 64f
9:06am 15 17 mph 1017.9mb 55f 64f
9:00am 16 21 mph 1018.2mb 55f 64f
8:36am 22 25 mph 1018.9mb 55f 62f
8:30am 15 21 mph 1018.6mb 55f 62f
8:24am 15 24 mph 1018.5mb 55f 61f
8:18am 11 21 mph 1018.2mb 55f 64f
8:12am 13 14 mph 1018mb 55f 65f
8:06am 11 14 mph 1017.8mb 55f 64f
8:00am 14 15 mph 1018mb 55f 64f
7:36am 6 7 mph 1018.4mb 55f 62f
7:30am 8 9 mph 1018.5mb 55f 61f
7:24am 7 10 mph 1018.6mb 55f 61f
7:18am 11 16 mph 1018.5mb 55f 61f
7:12am 16 18 mph 1018.4mb 55f 61f
7:06am 17 20 mph 1018.9mb 55f 61f
7:00am 10 13 mph 1019.7mb 55f 62f
6:36am 14 23 mph 1019.5mb 55f 61f
6:30am 22 24 mph 1019.6mb 55f 60f
6:24am 22 26 mph 1019.7mb 55f 60f
6:18am 25 29 mph 1019.5mb 55f 61f
6:12am 25 29 mph 1019.3mb 55f 61f
6:06am 28 36 mph 1019.2mb 55f 61f
6:00am 28 32 mph 1019.2mb 55f 60f
5:36am 21 26 mph 1018.7mb 55f 61f
5:30am 20 22 mph 1018.8mb 55f 60f
5:24am 20 24 mph 1018.7mb 55f 60f
5:18am 15 17 mph 1018.4mb 55f 60f
5:12am 9 11 mph 1018.1mb 55f 60f
5:06am 8 11 mph 1018.2mb 55f 61f
5:00am 8 11 mph 1017.9mb 55f 61f
4:36am 18 23 mph 1018.1mb 55f 61f
4:30am 21 25 mph 1018.1mb 55f 61f
4:24am 23 26 mph 1018mb 55f 62f
4:18am 18 22 mph 1017.9mb 55f 61f
4:12am 14 21 mph 1017.7mb 55f 62f
4:06am 18 21 mph 1017.4mb 55f 62f
4:00am 21 23 mph 1017.2mb 55f 64f
3:36am 17 22 mph 1017.6mb 55f 62f
3:30am 18 22 mph 1017.5mb 55f 62f
3:24am 16 21 mph 1017.4mb 55f 62f
3:18am 18 20 mph 1017.5mb 55f 63f
3:12am 15 18 mph 1017.3mb 55f 62f
3:06am 11 15 mph 1017.2mb 55f 61f
3:00am 13 14 mph 1017.2mb 55f 62f
2:36am 10 11 mph 1017.3mb 55f 66f
2:30am 9 9 mph 1017.4mb 55f 67f
2:24am 9 11 mph 1017.6mb 55f 67f
2:18am 10 11 mph 1017.8mb 55f 67f
2:12am 9 11 mph 1017.7mb 55f 68f
2:06am 11 14 mph 1017.8mb 55f 68f
2:00am 15 16 mph 1017.7mb 55f 69f
1:36am 16 17 mph 1017.8mb 55f 67f
1:30am 15 18 mph 1017.7mb 55f 68f
1:24am 13 15 mph 1017.8mb 55f 67f
1:18am 8 10 mph 1017.8mb 55f 66f
1:12am 9 14 mph 1017.9mb 55f 66f
1:06am 8 15 mph 1018.1mb 55f 65f
1:00am 5 6 mph 1018.2mb 55f 64f
12:36am 8 11 mph 1018.4mb 55f 62f
12:30am 10 14 mph 1018.4mb 55f 62f
12:24am 15 15 mph 1018.4mb 55f 62f
12:18am 16 18 mph 1018.5mb 55f 63f
12:12am 20 23 mph 1018.7mb 55f 61f
12:06am 22 24 mph 1018.7mb 55f 61f
12:00am 22 25 mph 1018.7mb 55f 60f
Tue 11/21 7:36pm 7 9 mph 1017.2mb 55f 64f
7:30pm 7 8 mph 1017.3mb 55f 62f
7:24pm 7 8 mph 1017.2mb 55f 61f
7:18pm 6 6 mph 1017.2mb 55f 60f
7:12pm 5 6 mph 1017.1mb 55f 60f
7:06pm 3 6 mph 1017.2mb 55f 63f
7:00pm 5 6 mph 1017.1mb 55f 65f
6:36pm 3 5 mph 1017.1mb 55f 61f
6:30pm 5 5 mph 1017mb 55f 61f
6:24pm 5 7 mph 1017mb 55f 61f
6:18pm 7 7 mph 1017mb 55f 61f
6:12pm 6 7 mph 1017.3mb 55f 61f
6:06pm 7 7 mph 1017.2mb 55f 60f
6:00pm 7 8 mph 1017.2mb 55f 60f
5:54pm 7 9 mph 1017.3mb 55f 60f
5:48pm 8 9 mph 1017.3mb 55f 60f
5:36pm 3 3 mph 1017.4mb 55f 61f
5:30pm 5 6 mph 1017.4mb 55f 61f
5:24pm 3 5 mph 1017.4mb 55f 61f
5:18pm 2 7 mph 1017.4mb 55f 61f
5:12pm 8 11 mph 1017.3mb 55f 61f
5:06pm 11 15 mph 1017.4mb 55f 60f
5:00pm 14 15 mph 1017.5mb 55f 60f
4:54pm 14 15 mph 1017.5mb 55f 59f
4:48pm 13 14 mph 1017.6mb 55f 59f
4:36pm 14 16 mph 1017.7mb 55f 60f
4:30pm 14 16 mph 1017.6mb 55f 60f
4:24pm 15 16 mph 1017.6mb 55f 60f
4:18pm 15 18 mph 1017.6mb 55f 60f
4:12pm 16 18 mph 1017.5mb 55f 60f
4:06pm 15 18 mph 1017.5mb 55f 60f
4:00pm 16 20 mph 1017.5mb 55f 60f
3:54pm 17 21 mph 1017.5mb 55f 60f
3:48pm 21 23 mph 1017.5mb 55f 61f
3:36pm 15 16 mph 1017.4mb 55f 59f
3:30pm 17 21 mph 1017.4mb 55f 60f
3:24pm 18 23 mph 1017.6mb 55f 60f
3:18pm 20 26 mph 1017.4mb 55f 60f
3:12pm 20 25 mph 1017.4mb 55f 60f
3:06pm 20 24 mph 1017.3mb 55f 60f
3:00pm 21 26 mph 1017.4mb 55f 60f
2:54pm 21 24 mph 1017.2mb 55f 60f
2:48pm 21 24 mph 1017.2mb 55f 60f
2:36pm 17 22 mph 1017.1mb 55f 59f
2:30pm 16 22 mph 1017mb 55f 59f
2:24pm 16 22 mph 1017mb 55f 59f
2:18pm 18 23 mph 1017.1mb 55f 59f
2:12pm 18 22 mph 1017.2mb 55f 59f
2:06pm 17 22 mph 1017.1mb 55f 59f
2:00pm 17 22 mph 1017.1mb 55f 59f
1:54pm 17 23 mph 1017mb 55f 60f
1:48pm 20 23 mph 1017.2mb 55f 60f
1:36pm 21 23 mph 1017.2mb 55f 60f
1:30pm 18 23 mph 1017.2mb 55f 60f
1:24pm 17 24 mph 1017.3mb 55f 61f
1:18pm 17 22 mph 1017.3mb 55f 61f
1:12pm 17 22 mph 1017.4mb 55f 61f
1:06pm 17 20 mph 1017.2mb 55f 61f
1:00pm 11 18 mph 1017.1mb 55f 64f
12:54pm 11 14 mph 1017mb 55f 65f
12:48pm 15 16 mph 1017mb 55f 72f
12:36pm 16 18 mph 1016.9mb 55f 72f
12:30pm 15 18 mph 1016.9mb 55f 72f
12:24pm 15 21 mph 1016.8mb 55f 71f
12:18pm 18 21 mph 1016.8mb 55f 71f
12:12pm 17 22 mph 1016.8mb 55f 71f
12:06pm 16 22 mph 1016.8mb 55f 71f
12:00pm 18 23 mph 1016.8mb 55f 71f
11:54am 17 21 mph 1016.7mb 55f 71f
11:48am 17 21 mph 1016.7mb 55f 71f
11:36am 18 28 mph 1016.7mb 55f 71f
11:30am 18 25 mph 1016.7mb 55f 71f
11:24am 22 25 mph 1016.8mb 55f 71f
11:18am 23 33 mph 1016.9mb 55f 71f
11:12am 22 26 mph 1016.9mb 55f 71f
11:06am 25 31 mph 1016.8mb 55f 71f
11:00am 24 32 mph 1016.8mb 55f 71f
10:54am 26 34 mph 1016.9mb 55f 71f
10:48am 29 36 mph 1016.7mb 55f 71f
10:36am 29 32 mph 1016.9mb 55f 71f
10:30am 26 34 mph 1017mb 55f 70f
10:24am 25 31 mph 1016.9mb 55f 70f
10:18am 26 32 mph 1016.8mb 55f 70f
10:12am 25 34 mph 1016.8mb 55f 69f
10:06am 24 29 mph 1016.9mb 55f 69f
10:00am 24 28 mph 1016.9mb 55f 69f
9:54am 28 32 mph 1016.8mb 55f 70f
9:36am 28 33 mph 1016.6mb 55f 69f
9:30am 28 32 mph 1016.6mb 55f 69f
9:24am 25 31 mph 1016.7mb 55f 69f
9:18am 25 31 mph 1016.7mb 55f 69f
9:12am 26 32 mph 1016.6mb 55f 69f
9:06am 25 30 mph 1016.6mb 55f 69f
9:00am 26 31 mph 1016.6mb 55f 69f
8:54am 25 30 mph 1016.6mb 55f 69f
8:48am 28 34 mph 1016.5mb 55f 69f
8:36am 23 28 mph 1016.6mb 55f 69f
8:30am 23 33 mph 1016.7mb 55f 68f
8:24am 23 29 mph 1016.8mb 55f 68f
8:18am 24 26 mph 1016.8mb 55f 69f
8:12am 23 28 mph 1016.9mb 55f 68f
8:06am 22 29 mph 1016.8mb 55f 68f
8:00am 22 26 mph 1016.8mb 55f 68f
7:54am 20 26 mph 1016.7mb 55f 68f
7:48am 20 32 mph 1016.6mb 55f 69f
7:36am 21 31 mph 1016.4mb 55f 69f
7:30am 25 33 mph 1016.4mb 55f 69f
7:24am 26 33 mph 1016.4mb 55f 70f
7:18am 28 34 mph 1016.5mb 55f 70f
7:12am 25 31 mph 1016.5mb 55f 69f
7:06am 28 33 mph 1016.6mb 55f 69f
7:00am 24 32 mph 1016.6mb 55f 69f
6:54am 26 32 mph 1016.5mb 55f 69f
6:48am 22 29 mph 1016.6mb 55f 68f
6:36am 21 29 mph 1016.5mb 55f 67f
6:30am 22 29 mph 1016.4mb 55f 68f
6:24am 22 32 mph 1016.4mb 55f 67f
6:18am 22 29 mph 1016.2mb 55f 66f
6:12am 24 28 mph 1016.3mb 55f 66f
6:06am 25 29 mph 1016.5mb 55f 66f
6:00am 23 29 mph 1016.2mb 55f 67f
5:54am 24 31 mph 1016.1mb 55f 68f
5:48am 25 30 mph 1016mb 55f 69f
5:36am 23 29 mph 1016mb 55f 68f
5:30am 22 26 mph 1015.9mb 55f 67f
5:24am 23 26 mph 1016.1mb 55f 67f
5:18am 22 25 mph 1016.2mb 55f 67f
5:12am 22 25 mph 1016.1mb 55f 68f
5:06am 21 24 mph 1016.2mb 55f 68f
5:00am 20 24 mph 1016.1mb 55f 67f
4:54am 17 21 mph 1016.1mb 55f 67f
4:48am 21 24 mph 1016.2mb 55f 67f
4:36am 15 17 mph 1016.4mb 55f 65f
4:30am 13 15 mph 1016.3mb 55f 66f
4:24am 13 20 mph 1016.4mb 55f 67f
4:18am 16 22 mph 1016.6mb 55f 67f
4:12am 21 24 mph 1016.6mb 55f 67f
4:06am 20 23 mph 1016.7mb 55f 66f
4:00am 16 21 mph 1016.8mb 55f 64f
3:54am 18 23 mph 1017mb 55f 64f
3:48am 20 22 mph 1017.1mb 55f 64f
3:36am 22 23 mph 1017.3mb 55f 64f
3:30am 17 20 mph 1017.1mb 55f 64f
3:24am 16 18 mph 1017.1mb 55f 65f
3:18am 15 17 mph 1017mb 55f 65f
3:12am 13 15 mph 1016.8mb 55f 67f
3:06am 14 15 mph 1016.5mb 55f 66f
3:00am 13 15 mph 1016.2mb 55f 64f
2:54am 14 16 mph 1016mb 55f 65f
2:48am 15 20 mph 1015.8mb 55f 66f
2:36am 17 21 mph 1016.2mb 55f 65f
2:30am 15 20 mph 1016.4mb 55f 65f
2:24am 14 17 mph 1016.5mb 55f 65f
2:18am 13 14 mph 1017.1mb 55f 66f
2:12am 13 17 mph 1017.3mb 55f 66f
2:06am 16 21 mph 1017.4mb 55f 67f
2:00am 14 20 mph 1017.4mb 55f 65f
1:54am 18 23 mph 1017.6mb 55f 67f
1:48am 17 20 mph 1017.6mb 55f 66f
1:36am 18 24 mph 1017.5mb 55f 66f
1:30am 21 24 mph 1017.5mb 55f 66f
1:24am 21 24 mph 1017.5mb 55f 66f
1:18am 21 24 mph 1017.4mb 55f 66f
1:12am 18 22 mph 1017.5mb 55f 66f
1:06am 17 23 mph 1017.5mb 55f 66f
1:00am 18 22 mph 1017.4mb 55f 66f
12:54am 17 22 mph 1017.4mb 55f 66f
12:48am 18 22 mph 1017.3mb 55f 67f
12:36am 18 25 mph 1017.4mb 55f 66f
12:30am 18 25 mph 1017.3mb 54f 66f
12:24am 18 23 mph 1017.3mb 54f 65f
12:18am 20 24 mph 1017.1mb 54f 66f
12:12am 20 25 mph 1017.2mb 54f 65f
12:06am 18 24 mph 1017.2mb 54f 65f
12:00am 20 25 mph 1017.2mb 54f 65f
Mon 11/20 11:54pm 18 23 mph 1017.1mb 54f 64f
11:48pm 21 25 mph 1017.2mb 54f 64f
11:36pm 21 23 mph 1017.3mb 54f 64f
11:30pm 18 21 mph 1017.3mb 54f 64f
11:24pm 18 24 mph 1017.2mb 54f 64f
11:18pm 17 22 mph 1017.1mb 54f 64f
11:12pm 18 25 mph 1017.1mb 54f 64f
11:06pm 17 22 mph 1017.1mb 54f 64f
11:00pm 20 22 mph 1017.1mb 54f 64f
10:54pm 20 22 mph 1017mb 54f 64f
10:48pm 15 17 mph 1017mb 54f 64f
10:36pm 14 16 mph 1017mb 54f 64f
10:30pm 13 16 mph 1016.9mb 54f 64f
10:24pm 11 14 mph 1016.8mb 54f 64f
10:18pm 8 9 mph 1016.6mb 54f 64f
10:12pm 8 13 mph 1016.6mb 54f 64f
10:06pm 11 14 mph 1016.6mb 54f 64f
10:00pm 11 14 mph 1016.5mb 54f 64f
9:54pm 14 22 mph 1016.5mb 54f 64f
9:36pm 13 16 mph 1016.6mb 54f 63f
9:30pm 9 14 mph 1016.5mb 54f 62f
9:24pm 10 11 mph 1016.4mb 54f 62f
9:18pm 11 14 mph 1016.4mb 54f 62f
9:12pm 14 16 mph 1016.5mb 54f 62f
9:06pm 14 16 mph 1016.4mb 54f 62f
9:00pm 15 16 mph 1016.3mb 54f 62f
8:54pm 15 17 mph 1016.3mb 54f 62f
8:48pm 16 17 mph 1016.8mb 54f 62f
8:36pm 11 14 mph 1016.4mb 54f 62f
8:30pm 14 18 mph 1016.2mb 54f 61f
8:24pm 16 20 mph 1016.1mb 54f 61f
8:18pm 20 22 mph 1016.3mb 54f 62f
8:12pm 20 23 mph 1016.3mb 54f 62f
8:06pm 21 23 mph 1016.1mb 54f 62f
8:00pm 20 22 mph 1016mb 54f 61f
7:54pm 20 23 mph 1016.1mb 54f 61f
7:48pm 18 22 mph 1016.1mb 54f 61f
7:36pm 21 23 mph 1016.1mb 54f 62f
7:30pm 16 20 mph 1015.8mb 54f 61f
7:24pm 14 18 mph 1015.6mb 54f 61f
7:18pm 9 10 mph 1015.8mb 54f 61f
7:12pm 5 7 mph 1015.6mb 54f 61f
7:06pm 5 6 mph 1015.3mb 54f 61f
7:00pm 6 8 mph 1015mb 54f 60f
6:54pm 8 10 mph 1014.8mb 54f 60f
6:48pm 8 13 mph 1014.9mb 54f 60f
6:36pm 14 16 mph 1015.1mb 54f 60f
6:30pm 13 15 mph 1014.9mb 54f 60f
6:24pm 11 13 mph 1014.8mb 54f 60f
6:18pm 10 11 mph 1014.9mb 54f 60f
6:12pm 13 16 mph 1014.8mb 54f 61f
6:06pm 17 20 mph 1014.8mb 54f 61f
6:00pm 17 20 mph 1014.8mb 54f 61f
5:54pm 18 22 mph 1014.9mb 54f 61f
5:48pm 17 21 mph 1015mb 54f 60f
5:36pm 20 23 mph 1015mb 54f 60f
5:30pm 20 23 mph 1015.1mb 54f 60f
5:24pm 22 28 mph 1015.1mb 54f 60f
5:18pm 21 24 mph 1014.9mb 54f 60f
5:12pm 18 21 mph 1014.9mb 54f 60f
5:06pm 20 22 mph 1014.8mb 54f 60f
5:00pm 20 23 mph 1014.7mb 54f 60f
4:54pm 21 22 mph 1014.6mb 54f 60f
4:48pm 17 18 mph 1014.6mb 54f 60f
4:36pm 15 17 mph 1014.4mb 54f 59f
4:30pm 16 21 mph 1014.4mb 54f 59f
4:24pm 18 22 mph 1014.4mb 54f 59f
4:18pm 18 21 mph 1014.4mb 54f 59f
4:12pm 17 20 mph 1014.3mb 54f 59f
4:06pm 15 18 mph 1014.3mb 54f 60f
4:00pm 17 21 mph 1014.3mb 54f 60f
3:54pm 17 22 mph 1014.2mb 54f 60f
3:48pm 17 21 mph 1014.2mb 54f 60f
3:36pm 16 21 mph 1014.2mb 54f 60f
3:30pm 14 18 mph 1014.2mb 54f 60f
3:24pm 15 17 mph 1014.1mb 54f 60f
3:18pm 14 17 mph 1014.1mb 54f 60f
3:12pm 14 15 mph 1014.1mb 54f 60f
3:06pm 14 16 mph 1014.1mb 54f 60f
3:00pm 15 17 mph 1014.1mb 54f 60f
2:54pm 15 17 mph 1014.1mb 54f 60f
2:48pm 14 15 mph 1014mb 54f 60f
2:36pm 14 17 mph 1013.9mb 54f 60f
2:30pm 14 15 mph 1013.9mb 54f 60f
2:24pm 14 16 mph 1013.9mb 54f 60f
2:18pm 13 15 mph 1013.9mb 54f 60f
2:12pm 11 15 mph 1013.9mb 54f 60f
2:06pm 10 13 mph 1013.9mb 54f 59f
2:00pm 11 14 mph 1013.8mb 54f 59f
1:54pm 11 13 mph 1013.8mb 54f 59f
1:48pm 11 13 mph 1013.9mb 54f 59f
1:36pm 13 16 mph 1013.9mb 54f 59f
1:30pm 17 20 mph 1014.1mb 54f 59f
1:24pm 15 18 mph 1014.1mb 54f 59f
1:18pm 17 22 mph 1014.2mb 54f 59f
1:12pm 17 22 mph 1014.3mb 54f 59f
1:06pm 16 20 mph 1014.3mb 54f 59f
1:00pm 16 18 mph 1014.3mb 54f 59f
12:54pm 16 20 mph 1014.2mb 54f 60f
12:48pm 15 17 mph 1014mb 54f 60f
12:36pm 14 17 mph 1013.9mb 54f 60f
12:30pm 15 20 mph 1014.1mb 54f 60f
12:24pm 18 21 mph 1014mb 54f 60f
12:18pm 17 22 mph 1014.1mb 54f 59f
12:12pm 16 20 mph 1014.1mb 54f 60f
12:06pm 11 15 mph 1014.1mb 54f 59f
12:00pm 13 15 mph 1014.1mb 54f 60f
11:54am 15 20 mph 1014mb 54f 60f
11:48am 17 20 mph 1014.1mb 54f 60f
11:36am 17 22 mph 1014.2mb 54f 60f
11:30am 16 20 mph 1014.3mb 54f 60f
11:24am 17 22 mph 1014.3mb 54f 60f
11:18am 16 23 mph 1014.4mb 54f 60f
11:12am 17 24 mph 1014.4mb 54f 60f
11:06am 17 21 mph 1014.5mb 54f 60f
11:00am 16 18 mph 1014.5mb 54f 60f
10:54am 15 20 mph 1014.6mb 54f 60f
10:48am 17 20 mph 1014.4mb 54f 60f
10:36am 15 20 mph 1014.2mb 54f 60f
10:30am 18 22 mph 1014.1mb 54f 59f
10:24am 21 23 mph 1014.2mb 54f 60f
10:18am 18 22 mph 1014.2mb 54f 60f
10:12am 18 21 mph 1014.3mb 54f 60f
10:06am 20 22 mph 1014.4mb 54f 60f
10:00am 17 21 mph 1014.2mb 54f 60f
9:54am 17 21 mph 1014.2mb 54f 60f
9:48am 20 23 mph 1014.1mb 54f 60f
9:36am 18 21 mph 1014.1mb 54f 60f
9:30am 20 23 mph 1014.2mb 54f 60f
9:24am 18 22 mph 1014mb 54f 60f
9:18am 18 23 mph 1013.9mb 54f 60f
9:12am 21 24 mph 1013.8mb 54f 60f
9:06am 21 24 mph 1013.7mb 54f 60f
9:00am 22 23 mph 1013.7mb 54f 60f
8:54am 21 25 mph 1013.6mb 54f 60f
8:36am 22 25 mph 1013.1mb 54f 61f
8:30am 21 25 mph 1013mb 54f 61f
8:24am 22 24 mph 1012.9mb 54f 60f
8:18am 23 28 mph 1013mb 54f 61f
8:12am 21 25 mph 1012.9mb 54f 60f
8:06am 20 24 mph 1012.8mb 54f 61f
8:00am 20 24 mph 1012.6mb 54f 61f
7:54am 23 26 mph 1012.4mb 54f 62f
7:48am 22 25 mph 1012.3mb 54f 61f
7:36am 23 28 mph 1012.3mb 54f 61f
7:30am 21 24 mph 1012.3mb 54f 60f
7:24am 21 25 mph 1012.2mb 54f 61f
7:18am 23 26 mph 1012.3mb 54f 61f
7:12am 23 28 mph 1012.2mb 54f 61f
7:06am 23 31 mph 1012.1mb 54f 61f
7:00am 24 30 mph 1012mb 54f 61f
6:54am 23 29 mph 1012.1mb 54f 61f
6:48am 23 32 mph 1012.1mb 54f 61f
6:36am 23 29 mph 1012.3mb 54f 61f
6:30am 21 29 mph 1012.1mb 54f 61f
6:24am 23 25 mph 1012.1mb 54f 59f
6:18am 21 26 mph 1011.9mb 54f 59f
6:12am 25 29 mph 1011.8mb 54f 60f
6:06am 22 23 mph 1011.7mb 54f 59f
6:00am 18 24 mph 1012mb 54f 59f
5:54am 22 26 mph 1012.2mb 54f 59f
5:48am 21 24 mph 1012.3mb 54f 58f
5:36am 18 22 mph 1012.2mb 54f 58f
5:30am 16 20 mph 1012mb 54f 57f
5:24am 16 22 mph 1012mb 54f 58f
5:18am 18 22 mph 1012.1mb 54f 58f
5:12am 18 24 mph 1012mb 54f 58f
5:06am 21 25 mph 1012mb 54f 58f
5:00am 21 23 mph 1011.9mb 54f 57f
4:54am 22 24 mph 1011.7mb 54f 57f
4:48am 17 20 mph 1011.7mb 54f 56f
4:36am 17 21 mph 1011.9mb 54f 56f
4:30am 17 21 mph 1011.9mb 54f 56f
4:24am 18 24 mph 1011.8mb 54f 56f
4:18am 22 25 mph 1011.8mb 54f 56f
4:12am 22 23 mph 1011.7mb 54f 56f
4:06am 22 25 mph 1011.7mb 54f 56f
4:00am 21 24 mph 1011.6mb 54f 56f
3:54am 22 25 mph 1011.5mb 54f 56f
3:48am 23 29 mph 1011.5mb 54f 57f
3:36am 22 25 mph 1011.4mb 54f 57f
3:30am 24 29 mph 1011.4mb 54f 58f
3:24am 24 28 mph 1011.6mb 54f 57f
3:18am 20 28 mph 1011.9mb 54f 57f
3:12am 23 26 mph 1011.7mb 54f 58f
3:06am 24 28 mph 1011.9mb 54f 58f
3:00am 21 26 mph 1011.9mb 54f 57f
2:54am 23 29 mph 1012mb 54f 58f
2:48am 24 30 mph 1012.1mb 54f 58f
2:36am 24 28 mph 1012.2mb 54f 57f
2:30am 22 26 mph 1012.3mb 54f 56f
2:24am 22 29 mph 1012.4mb 54f 57f
2:18am 22 26 mph 1012.4mb 54f 57f
2:12am 22 26 mph 1012.4mb 54f 57f
2:06am 21 25 mph 1012.5mb 54f 56f
2:00am 21 26 mph 1012.6mb 54f 56f
1:54am 21 25 mph 1012.7mb 54f 56f
1:48am 22 26 mph 1012.7mb 54f 56f
1:36am 24 28 mph 1012.6mb 54f 57f
1:30am 21 26 mph 1012.9mb 54f 56f
1:24am 18 22 mph 1013mb 54f 56f
1:18am 18 23 mph 1013mb 54f 56f
1:12am 20 22 mph 1013mb 54f 56f
1:06am 20 24 mph 1013.1mb 54f 56f
1:00am 18 23 mph 1013mb 54f 55f
12:54am 21 25 mph 1013.1mb 54f 56f
12:48am 20 25 mph 1013.1mb 54f 56f
12:36am 22 28 mph 1013.1mb 53f 56f
12:30am 22 26 mph 1013.1mb 53f 56f
12:24am 23 28 mph 1013.1mb 53f 56f
12:18am 22 28 mph 1013.2mb 53f 56f
12:12am 24 32 mph 1013.2mb 53f 56f
12:06am 22 26 mph 1013.1mb 53f 56f
12:00am 23 29 mph 1013.2mb 53f 57f
Sun 11/19 11:54pm 29 34 mph 1013.2mb 53f 57f
11:48pm 26 33 mph 1013.3mb 53f 58f
11:36pm 23 29 mph 1013.5mb 53f 58f
11:30pm 25 30 mph 1013.4mb 53f 59f
11:24pm 23 30 mph 1013.4mb 53f 58f
11:18pm 22 29 mph 1013.4mb 53f 58f
11:12pm 23 29 mph 1013.5mb 53f 59f
11:06pm 20 26 mph 1013.4mb 53f 58f
11:00pm 22 24 mph 1013.6mb 53f 58f
10:54pm 24 26 mph 1013.7mb 53f 58f
10:48pm 22 28 mph 1013.5mb 53f 59f
10:36pm 20 22 mph 1013.8mb 53f 59f
10:30pm 18 23 mph 1013.9mb 53f 59f
10:24pm 20 25 mph 1013.9mb 53f 59f
10:18pm 22 24 mph 1013.9mb 53f 59f
10:12pm 18 23 mph 1013.9mb 53f 59f
10:06pm 20 28 mph 1013.9mb 53f 59f
10:00pm 18 23 mph 1013.9mb 53f 59f
9:54pm 18 25 mph 1013.9mb 53f 59f
9:48pm 22 24 mph 1014.1mb 53f 60f
9:36pm 20 24 mph 1014.2mb 53f 59f
9:30pm 18 21 mph 1014.2mb 53f 58f
9:24pm 18 22 mph 1014.3mb 53f 58f
9:18pm 20 24 mph 1014.4mb 53f 58f
9:12pm 20 22 mph 1014.4mb 53f 58f
9:06pm 18 22 mph 1014.5mb 53f 57f
9:00pm 18 22 mph 1014.7mb 53f 57f
8:54pm 17 20 mph 1014.7mb 53f 57f
8:48pm 16 22 mph 1014.6mb 53f 57f
8:36pm 20 22 mph 1014.5mb 53f 57f
8:30pm 18 21 mph 1014.5mb 53f 58f
8:24pm 17 22 mph 1014.7mb 53f 57f
8:18pm 17 20 mph 1014.7mb 53f 58f
8:12pm 13 15 mph 1014.7mb 53f 58f
8:06pm 11 13 mph 1014.7mb 53f 57f
8:00pm 8 11 mph 1014.9mb 53f 57f
7:54pm 10 14 mph 1014.9mb 53f 58f
7:48pm 9 11 mph 1015mb 53f 58f
7:36pm 8 11 mph 1014.7mb 53f 58f
7:30pm 8 11 mph 1014.6mb 53f 58f
7:24pm 7 9 mph 1014.6mb 53f 57f
7:18pm 6 10 mph 1014.7mb 53f 58f
7:12pm 11 15 mph 1014.8mb 53f 59f
7:06pm 13 16 mph 1014.7mb 53f 58f
7:00pm 5 7 mph 1014.8mb 53f 57f
6:54pm 6 9 mph 1015.1mb 53f 57f
6:48pm 8 9 mph 1015.2mb 53f 58f
6:36pm 7 11 mph 1015.5mb 53f 57f
6:30pm 10 13 mph 1015.6mb 53f 57f
6:24pm 13 16 mph 1015.6mb 53f 57f
6:18pm 15 18 mph 1015.6mb 53f 57f
6:12pm 16 18 mph 1015.7mb 53f 57f
6:06pm 17 20 mph 1015.8mb 53f 56f
6:00pm 17 20 mph 1015.9mb 53f 56f
5:54pm 15 17 mph 1016mb 53f 56f
5:48pm 13 15 mph 1015.9mb 53f 55f
5:36pm 9 11 mph 1015.8mb 53f 54f
5:30pm 8 9 mph 1015.9mb 53f 54f
5:24pm 7 9 mph 1016mb 53f 53f
5:18pm 3 6 mph 1015.9mb 53f 52f
5:12pm 1 2 mph 1015.9mb 53f 52f
5:06pm  -  2 mph 1015.9mb 53f 51f
5:00pm 1 2 mph 1015.9mb 53f 51f
4:54pm 2 2 mph 1016.1mb 53f 51f
4:48pm 3 5 mph 1016.2mb 53f 51f
4:36pm 3 5 mph 1016.2mb 53f 51f
4:30pm 2 5 mph 1016.3mb 53f 51f
4:24pm 3 5 mph 1016.4mb 53f 51f
4:18pm 5 5 mph 1016.3mb 53f 52f
4:12pm 5 6 mph 1016.4mb 53f 52f
4:06pm 3 6 mph 1016.4mb 53f 52f
4:00pm 6 7 mph 1016.5mb 53f 53f
3:54pm 6 8 mph 1016.6mb 53f 53f
3:48pm 8 10 mph 1016.7mb 53f 53f
3:36pm 10 11 mph 1016.8mb 53f 53f
3:30pm 11 13 mph 1016.9mb 53f 53f
3:24pm 10 13 mph 1016.8mb 53f 53f
3:18pm 10 13 mph 1016.7mb 53f 53f
3:12pm 9 15 mph 1016.8mb 53f 53f
3:06pm 10 13 mph 1016.9mb 53f 53f
3:00pm 10 13 mph 1016.9mb 53f 53f
2:54pm 7 10 mph 1017mb 53f 53f
2:48pm 8 10 mph 1017mb 53f 53f
2:36pm 7 10 mph 1016.8mb 53f 52f
2:30pm 7 9 mph 1016.7mb 53f 52f
2:24pm 7 10 mph 1016.9mb 53f 52f
2:18pm 8 10 mph 1017mb 53f 52f
2:12pm 7 13 mph 1017.1mb 53f 52f
2:06pm 9 14 mph 1017.1mb 53f 51f
2:00pm 10 13 mph 1017.2mb 53f 52f
1:54pm 10 14 mph 1017.4mb 53f 51f
1:48pm 9 13 mph 1017.3mb 53f 51f
1:36pm 8 10 mph 1017.2mb 53f 51f
1:30pm 5 7 mph 1017.1mb 53f 51f
1:24pm 5 7 mph 1017.2mb 53f 51f
1:18pm 3 5 mph 1017.4mb 53f 51f
1:12pm 3 5 mph 1017.6mb 53f 51f
1:06pm 5 6 mph 1017.6mb 53f 51f
1:00pm 5 6 mph 1017.8mb 53f 51f
12:54pm 2 5 mph 1017.9mb 53f 51f
12:48pm 5 5 mph 1018.1mb 53f 51f
12:36pm 5 6 mph 1018.4mb 53f 51f
12:30pm 5 7 mph 1018.4mb 53f 51f
12:24pm 6 7 mph 1018.4mb 53f 51f
12:18pm 6 7 mph 1018.7mb 53f 51f
12:12pm 5 6 mph 1018.9mb 53f 51f
12:06pm 6 8 mph 1019mb 53f 51f
12:00pm 7 8 mph 1019.2mb 53f 50f
11:54am 8 9 mph 1019.4mb 53f 50f
11:48am 7 8 mph 1019.7mb 53f 50f
11:36am 7 8 mph 1020.1mb 53f 50f
11:30am 7 9 mph 1020.2mb 53f 50f
11:24am 9 10 mph 1020.6mb 53f 50f
11:18am 8 11 mph 1020.6mb 53f 50f
11:12am 9 10 mph 1020.7mb 53f 50f
11:06am 8 9 mph 1020.9mb 53f 49f
11:00am 7 9 mph 1021mb 53f 49f
10:54am 9 11 mph 1021.1mb 53f 49f
10:48am 10 11 mph 1021.1mb 53f 48f
10:36am 10 13 mph 1021.2mb 53f 46f
10:30am 10 11 mph 1021.1mb 53f 46f
10:24am 10 13 mph 1021.3mb 53f 46f
10:18am 13 16 mph 1021.3mb 53f 45f
10:12am 14 16 mph 1021mb 53f 45f
10:06am 15 16 mph 1021mb 53f 45f
10:00am 13 14 mph 1021.1mb 53f 45f
9:54am 10 11 mph 1021.1mb 53f 45f
9:48am 10 13 mph 1021.1mb 53f 45f
9:36am 3 5 mph 1021mb 53f 44f
9:30am 5 6 mph 1021mb 53f 43f
9:24am 6 6 mph 1020.9mb 53f 42f
9:18am 5 7 mph 1021mb 53f 42f
9:12am 8 9 mph 1020.8mb 53f 42f
9:06am 8 9 mph 1021.1mb 53f 41f
9:00am 9 10 mph 1021mb 53f 42f
8:54am 9 9 mph 1021mb 53f 42f
8:48am 8 10 mph 1021mb 53f 42f
8:36am 8 10 mph 1021.1mb 53f 43f
8:30am 10 14 mph 1021.1mb 53f 45f
8:24am 10 13 mph 1021.2mb 53f 44f
8:18am 9 14 mph 1021.3mb 53f 43f
8:12am 11 14 mph 1021.2mb 53f 43f
8:06am 13 15 mph 1021mb 53f 43f
8:00am 13 16 mph 1020.9mb 53f 43f
7:54am 13 14 mph 1020.8mb 53f 42f
7:48am 11 15 mph 1020.9mb 53f 42f
7:36am 14 15 mph 1020.7mb 53f 41f
7:30am 10 11 mph 1020.7mb 53f 42f
7:24am 8 9 mph 1020.5mb 53f 42f
7:18am 6 8 mph 1020.3mb 53f 42f
7:12am 8 9 mph 1020.1mb 53f 42f
7:06am 7 8 mph 1020.2mb 53f 42f
7:00am 7 8 mph 1020.4mb 53f 42f
6:54am 8 10 mph 1020.3mb 53f 42f
6:48am 8 9 mph 1020.3mb 53f 42f